Time;durP1;ratioP1;P1;durP2;ratioP2;P2;SDS_P1;SDS_P2;PMS_P1;PMS_P2;Temp;Humidity;BMP_temperature;BMP_pressure;BME280_temperature;BME280_humidity;BME280_pressure;Samples;Min_cycle;Max_cycle;Signal;HPM_P1;HPM_P2
2021/06/29 00:01:03;;;;;;;18.05;11.75;;;;;;;25.60;44.29;100819.56;4395016;32;20482;-76
2021/06/29 00:03:29;;;;;;;19.08;11.30;;;;;;;25.63;44.61;100822.16;4392356;32;20034;-75
2021/06/29 00:05:55;;;;;;;17.42;10.65;;;;;;;25.55;44.46;100808.88;4391804;32;20395;-75
2021/06/29 00:08:20;;;;;;;18.65;10.73;;;;;;;25.60;44.54;100816.69;4392237;32;20116;-75
2021/06/29 00:10:47;;;;;;;18.12;11.60;;;;;;;25.61;44.36;100824.03;4392617;32;20085;-76
2021/06/29 00:13:13;;;;;;;23.50;11.65;;;;;;;25.54;44.16;100821.72;4392428;32;20428;-75
2021/06/29 00:15:39;;;;;;;23.65;10.93;;;;;;;25.52;44.06;100827.25;4391774;32;20399;-76
2021/06/29 00:18:05;;;;;;;21.65;10.73;;;;;;;25.55;44.04;100823.31;4389499;32;20086;-76
2021/06/29 00:20:32;;;;;;;18.50;10.70;;;;;;;25.74;44.19;100835.66;4392996;32;20403;-75
2021/06/29 00:22:58;;;;;;;20.08;10.48;;;;;;;25.61;44.75;100826.91;4392080;32;20034;-75
2021/06/29 00:25:24;;;;;;;17.77;10.85;;;;;;;25.71;44.66;100825.97;4391883;32;20082;-75
2021/06/29 00:27:50;;;;;;;21.80;11.38;;;;;;;25.40;44.68;100823.69;4393847;32;20700;-75
2021/06/29 00:30:17;;;;;;;18.85;11.35;;;;;;;25.55;44.79;100824.06;4389916;32;20100;-76
2021/06/29 00:32:43;;;;;;;20.08;11.63;;;;;;;25.58;44.82;100825.09;4393426;32;21275;-76
2021/06/29 00:35:10;;;;;;;19.87;11.90;;;;;;;25.61;44.83;100824.03;4392300;32;20382;-75
2021/06/29 00:37:36;;;;;;;22.37;12.00;;;;;;;25.59;45.07;100826.66;4389346;32;20125;-74
2021/06/29 00:40:03;;;;;;;22.75;12.25;;;;;;;25.35;45.28;100816.66;4394424;32;20073;-75
2021/06/29 00:42:29;;;;;;;20.88;12.02;;;;;;;25.60;45.13;100822.44;4392589;32;20037;-75
2021/06/29 00:44:55;;;;;;;23.40;12.70;;;;;;;25.43;45.10;100813.97;4390313;32;20047;-75
2021/06/29 00:47:21;;;;;;;22.10;12.65;;;;;;;25.48;44.99;100818.12;4391810;32;20077;-75
2021/06/29 00:49:47;;;;;;;24.80;12.52;;;;;;;25.51;45.15;100819.91;4390137;32;20081;-76
2021/06/29 00:52:15;;;;;;;19.40;11.45;;;;;;;25.45;45.40;100816.31;4392354;32;20402;-76
2021/06/29 00:54:41;;;;;;;22.90;12.85;;;;;;;25.71;44.94;100819.44;4393782;32;20099;-76
2021/06/29 00:57:08;;;;;;;19.45;13.00;;;;;;;25.64;45.16;100814.28;4392913;32;20378;-75
2021/06/29 00:59:35;;;;;;;24.23;12.90;;;;;;;25.78;44.58;100808.09;4387788;32;20807;-75
2021/06/29 01:02:01;;;;;;;21.42;12.35;;;;;;;25.71;44.87;100800.03;4388167;32;20151;-76
2021/06/29 01:04:27;;;;;;;23.05;12.73;;;;;;;25.68;45.02;100792.47;4394497;32;20043;-76
2021/06/29 01:06:54;;;;;;;24.98;13.40;;;;;;;25.57;45.17;100788.94;4391839;32;20057;-76
2021/06/29 01:09:20;;;;;;;24.30;12.82;;;;;;;25.53;45.32;100785.59;4391547;32;20073;-75
2021/06/29 01:11:46;;;;;;;22.37;12.35;;;;;;;25.58;44.96;100779.75;4389595;32;20030;-75
2021/06/29 01:14:15;;;;;;;25.90;12.55;;;;;;;25.65;45.21;100784.94;4390716;32;20136;-75
2021/06/29 01:16:41;;;;;;;21.80;12.45;;;;;;;25.64;44.99;100788.34;4393069;32;20379;-75
2021/06/29 01:19:07;;;;;;;24.20;12.60;;;;;;;25.66;45.02;100792.25;4390550;32;20146;-76
2021/06/29 01:21:38;;;;;;;22.67;13.00;;;;;;;25.39;45.16;100793.34;4391985;32;20090;-75
2021/06/29 01:24:08;;;;;;;23.58;13.62;;;;;;;25.56;45.06;100798.91;4390200;32;20101;-76
2021/06/29 01:26:37;;;;;;;22.58;13.15;;;;;;;25.68;44.83;100795.34;4391492;32;20092;-75
2021/06/29 01:31:38;;;;;;;23.85;13.85;;;;;;;25.94;44.75;100789.00;3983713;32;15076588;-76
2021/06/29 01:34:05;;;;;;;27.27;13.65;;;;;;;25.94;44.75;100789.00;4440034;32;20044;-75
2021/06/29 01:36:38;;;;;;;28.98;14.73;;;;;;;25.51;44.77;100789.00;4439480;32;20416;-75
2021/06/29 01:39:08;;;;;;;26.48;13.60;;;;;;;25.42;45.39;100772.09;4436334;32;20061;-75
2021/06/29 01:41:35;;;;;;;21.27;12.37;;;;;;;25.62;45.45;100783.13;4440426;32;21486;-75
2021/06/29 01:46:42;;;;;;;24.17;12.43;;;;;;;25.90;45.09;100760.47;4001796;31;15015267;-75
2021/06/29 01:49:07;;;;;;;21.77;13.88;;;;;;;25.90;45.09;100760.47;4462613;32;20215;-75
2021/06/29 01:51:33;;;;;;;20.70;12.40;;;;;;;25.53;45.08;100759.66;4465266;32;20587;-74
2021/06/29 01:53:59;;;;;;;27.25;13.73;;;;;;;25.41;45.52;100761.09;4464681;32;20033;-75
2021/06/29 01:56:30;;;;;;;22.55;12.48;;;;;;;25.28;45.45;100759.63;4466026;32;20327;-75
2021/06/29 01:58:59;;;;;;;19.70;11.90;;;;;;;25.28;45.53;100756.00;4466024;32;20029;-74
2021/06/29 02:01:28;;;;;;;22.15;12.13;;;;;;;25.24;45.36;100743.97;4465765;32;20117;-76
2021/06/29 02:03:54;;;;;;;19.70;11.88;;;;;;;25.15;45.65;100753.75;4461095;32;20431;-75
2021/06/29 02:06:20;;;;;;;23.60;12.57;;;;;;;25.14;45.50;100737.00;4463989;32;20153;-75
2021/06/29 02:08:48;;;;;;;22.15;12.27;;;;;;;24.95;45.77;100736.94;4447385;32;20071;-75
2021/06/29 02:11:13;;;;;;;26.25;13.20;;;;;;;25.08;45.41;100725.56;4460864;32;20060;-74
2021/06/29 02:13:40;;;;;;;22.13;13.60;;;;;;;24.77;45.74;100729.03;4460980;32;20094;-75
2021/06/29 02:16:06;;;;;;;24.52;13.25;;;;;;;24.86;45.75;100728.66;4463474;32;20041;-75
2021/06/29 02:18:33;;;;;;;19.90;12.75;;;;;;;24.70;45.75;100729.59;4463487;32;20091;-74
2021/06/29 02:20:59;;;;;;;21.67;13.02;;;;;;;24.65;46.14;100726.75;4462174;32;20075;-75
2021/06/29 02:23:26;;;;;;;20.85;12.80;;;;;;;24.61;46.23;100718.37;4459100;32;20091;-75
2021/06/29 02:25:51;;;;;;;19.10;12.07;;;;;;;24.36;46.80;100719.63;4464319;32;20037;-75
2021/06/29 02:28:18;;;;;;;23.33;13.45;;;;;;;24.46;46.62;100711.47;4461173;32;20075;-75
2021/06/29 02:30:44;;;;;;;25.30;12.25;;;;;;;24.50;46.78;100706.19;4463920;32;20454;-75
2021/06/29 02:33:10;;;;;;;24.77;13.55;;;;;;;24.36;46.90;100716.75;4463242;32;20065;-75
2021/06/29 02:35:37;;;;;;;22.77;12.88;;;;;;;24.29;47.14;100710.81;4464411;32;20096;-74
2021/06/29 02:38:04;;;;;;;21.42;13.27;;;;;;;24.26;47.33;100712.66;4460713;32;20155;-75
2021/06/29 02:40:30;;;;;;;19.40;12.18;;;;;;;24.21;47.66;100709.84;4462756;32;20088;-75
2021/06/29 02:42:56;;;;;;;19.45;11.55;;;;;;;24.09;47.62;100716.97;4463860;32;20063;-75
2021/06/29 02:45:22;;;;;;;23.25;13.73;;;;;;;23.99;47.74;100715.75;4460775;32;20125;-75
2021/06/29 02:47:49;;;;;;;23.77;12.80;;;;;;;24.07;47.45;100713.84;4460757;32;20412;-75
2021/06/29 02:50:17;;;;;;;24.90;13.70;;;;;;;24.05;47.18;100710.75;4458434;32;20073;-75
2021/06/29 02:52:43;;;;;;;27.75;14.27;;;;;;;24.04;47.51;100714.91;4465450;32;20026;-75
2021/06/29 02:55:12;;;;;;;22.20;13.02;;;;;;;24.08;47.42;100718.31;4461818;32;20420;-75
2021/06/29 02:57:38;;;;;;;22.95;12.48;;;;;;;24.18;47.26;100726.06;4457990;32;20157;-75
2021/06/29 03:00:06;;;;;;;26.12;14.05;;;;;;;23.98;47.57;100732.22;4452021;32;20021;-75
2021/06/29 03:02:32;;;;;;;25.60;13.35;;;;;;;24.08;47.44;100730.56;4452632;32;20080;-75
2021/06/29 03:04:57;;;;;;;24.70;12.07;;;;;;;23.89;47.73;100729.63;4454559;32;20081;-75
2021/06/29 03:07:23;;;;;;;23.23;13.27;;;;;;;23.96;47.72;100725.44;4454987;32;20421;-75
2021/06/29 03:09:49;;;;;;;22.92;12.75;;;;;;;23.87;47.87;100732.22;4451278;32;20093;-75
2021/06/29 03:12:15;;;;;;;19.77;12.60;;;;;;;23.93;48.15;100740.84;4453168;32;20105;-75
2021/06/29 03:14:42;;;;;;;29.52;13.27;;;;;;;24.00;48.06;100728.81;4454662;32;20046;-75
2021/06/29 03:17:08;;;;;;;22.87;13.13;;;;;;;24.09;47.93;100731.34;4449338;32;20063;-75
2021/06/29 03:19:36;;;;;;;22.27;13.02;;;;;;;24.17;47.68;100721.63;4450622;32;21037;-75
2021/06/29 03:22:02;;;;;;;24.95;13.57;;;;;;;24.31;47.23;100729.13;4450867;32;20063;-75
2021/06/29 03:24:29;;;;;;;24.35;14.10;;;;;;;24.35;47.33;100723.84;4455134;32;20041;-75
2021/06/29 03:26:56;;;;;;;21.83;13.25;;;;;;;24.48;47.16;100729.75;4454814;32;20099;-75
2021/06/29 03:29:22;;;;;;;24.63;12.52;;;;;;;24.51;47.01;100736.56;4454720;32;20116;-75
2021/06/29 03:31:48;;;;;;;22.90;13.10;;;;;;;24.50;46.77;100730.00;4449221;32;20069;-75
2021/06/29 03:34:14;;;;;;;23.67;11.85;;;;;;;24.40;46.81;100734.53;4455762;32;20435;-75
2021/06/29 03:36:41;;;;;;;19.42;12.13;;;;;;;24.56;46.76;100729.94;4453826;32;20437;-75
2021/06/29 03:39:07;;;;;;;22.75;12.37;;;;;;;24.66;46.41;100731.97;4447733;32;20129;-75
2021/06/29 03:41:34;;;;;;;22.70;11.55;;;;;;;24.79;46.57;100731.34;4452602;32;20552;-76
2021/06/29 03:43:59;;;;;;;23.33;12.90;;;;;;;24.87;46.54;100726.56;4454110;32;20047;-75
2021/06/29 03:46:25;;;;;;;18.30;11.63;;;;;;;24.85;46.06;100729.97;4449420;32;20045;-75
2021/06/29 03:48:51;;;;;;;25.23;13.35;;;;;;;24.87;46.37;100723.66;4449903;32;20118;-75
2021/06/29 03:51:16;;;;;;;24.52;13.15;;;;;;;24.90;46.15;100723.38;4435453;32;20451;-75
2021/06/29 03:53:42;;;;;;;23.12;12.23;;;;;;;24.96;45.85;100718.34;4452751;32;20101;-75
2021/06/29 03:56:23;;;;;;;19.87;12.10;;;;;;;24.92;46.03;100722.84;4447912;32;20730;-75
2021/06/29 03:58:54;;;;;;;24.45;13.43;;;;;;;24.89;46.10;100718.16;4450188;32;20140;-75
2021/06/29 04:01:20;;;;;;;23.70;12.20;;;;;;;25.08;45.89;100714.03;4453741;32;20025;-75
2021/06/29 04:03:47;;;;;;;25.45;13.30;;;;;;;24.91;45.88;100721.28;4452808;32;20048;-75
2021/06/29 04:06:13;;;;;;;25.08;13.43;;;;;;;24.85;46.18;100712.69;4452187;32;20107;-76
2021/06/29 04:08:39;;;;;;;21.87;13.20;;;;;;;24.95;45.63;100718.91;4448345;32;20410;-75
2021/06/29 04:11:05;;;;;;;25.62;14.35;;;;;;;24.97;45.51;100713.34;4453207;32;20356;-75
2021/06/29 04:13:30;;;;;;;24.48;13.00;;;;;;;25.03;45.34;100711.19;4450163;32;20469;-75
2021/06/29 04:15:56;;;;;;;29.15;15.38;;;;;;;25.10;44.83;100711.37;4449458;32;20501;-75
2021/06/29 04:18:22;;;;;;;24.00;14.50;;;;;;;24.93;44.54;100716.56;4455028;32;20030;-75
2021/06/29 04:20:48;;;;;;;26.85;14.55;;;;;;;25.04;44.83;100713.53;4452143;32;20542;-75
2021/06/29 04:23:13;;;;;;;26.83;14.15;;;;;;;24.97;45.11;100722.00;4450032;32;20519;-76
2021/06/29 04:25:39;;;;;;;27.85;14.15;;;;;;;25.11;44.96;100720.81;4451637;32;20041;-75
2021/06/29 04:28:05;;;;;;;23.12;13.82;;;;;;;25.00;44.88;100715.94;4449489;32;20460;-75
2021/06/29 04:30:31;;;;;;;25.88;14.77;;;;;;;25.09;45.10;100727.12;4450997;32;20049;-75
2021/06/29 04:32:57;;;;;;;26.23;14.35;;;;;;;25.12;45.12;100723.16;4454828;32;20471;-75
2021/06/29 04:35:23;;;;;;;24.23;13.82;;;;;;;25.14;45.35;100726.28;4451119;32;20457;-75
2021/06/29 04:37:49;;;;;;;24.33;15.05;;;;;;;25.28;44.87;100732.94;4451546;32;20055;-75
2021/06/29 04:40:14;;;;;;;27.23;15.18;;;;;;;25.29;44.78;100738.16;4451275;32;20048;-75
2021/06/29 04:42:41;;;;;;;26.58;15.40;;;;;;;25.37;44.69;100742.00;4453088;32;20102;-75
2021/06/29 04:45:07;;;;;;;27.15;15.07;;;;;;;25.56;44.23;100736.31;4449114;32;20474;-75
2021/06/29 04:47:38;;;;;;;28.25;14.70;;;;;;;25.62;44.02;100739.09;4449812;32;20105;-75
2021/06/29 04:50:05;;;;;;;26.48;14.35;;;;;;;25.45;44.26;100735.63;4449772;32;20120;-75
2021/06/29 04:52:33;;;;;;;26.55;14.13;;;;;;;25.44;44.04;100742.72;4447538;32;20069;-75
2021/06/29 04:54:59;;;;;;;27.55;15.10;;;;;;;25.65;44.06;100738.00;4449707;32;20068;-75
2021/06/29 04:57:24;;;;;;;30.33;14.45;;;;;;;25.44;43.96;100739.84;4452072;32;20041;-75
2021/06/29 04:59:51;;;;;;;24.87;14.63;;;;;;;25.26;44.13;100739.25;4454811;32;20128;-75
2021/06/29 05:02:17;;;;;;;27.37;14.15;;;;;;;25.29;43.91;100740.25;4452836;32;20088;-75
2021/06/29 05:04:46;;;;;;;24.77;14.07;;;;;;;25.26;43.69;100742.13;4453342;32;20188;-75
2021/06/29 05:07:11;;;;;;;25.45;14.32;;;;;;;25.19;44.11;100739.81;4454393;32;20041;-75
2021/06/29 05:09:37;;;;;;;26.62;15.13;;;;;;;25.29;43.75;100752.56;4452020;32;20037;-76
2021/06/29 05:12:04;;;;;;;26.67;13.65;;;;;;;25.25;44.16;100746.31;4448504;32;20069;-75
2021/06/29 05:14:29;;;;;;;21.55;13.27;;;;;;;25.44;43.57;100746.41;4440531;32;20454;-75
2021/06/29 05:16:55;;;;;;;36.33;12.55;;;;;;;25.55;43.42;100743.38;4448845;32;20045;-75
2021/06/29 05:19:21;;;;;;;23.50;13.02;;;;;;;25.62;43.21;100750.62;4454943;32;20076;-75
2021/06/29 05:21:47;;;;;;;23.85;12.27;;;;;;;25.62;42.91;100747.75;4449023;32;20495;-75
2021/06/29 05:24:12;;;;;;;19.73;11.73;;;;;;;25.62;42.23;100756.41;4451304;32;20710;-75
2021/06/29 05:26:38;;;;;;;18.62;11.82;;;;;;;25.78;42.60;100746.75;4449028;32;20409;-75
2021/06/29 05:29:05;;;;;;;19.70;11.75;;;;;;;25.94;42.61;100745.75;4452463;32;20073;-75
2021/06/29 05:31:31;;;;;;;20.35;11.05;;;;;;;26.00;42.16;100746.47;4448634;32;20099;-76
2021/06/29 05:33:57;;;;;;;22.73;11.93;;;;;;;26.02;41.83;100750.38;4456460;32;20444;-75
2021/06/29 05:36:23;;;;;;;20.75;10.85;;;;;;;26.01;41.83;100753.81;4438618;32;20064;-76
2021/06/29 05:38:49;;;;;;;19.15;11.27;;;;;;;26.19;41.64;100755.87;4451268;32;20488;-75
2021/06/29 05:41:14;;;;;;;26.70;11.27;;;;;;;26.19;41.46;100755.87;4453118;32;20429;-75
2021/06/29 05:43:40;;;;;;;22.65;11.73;;;;;;;26.47;41.16;100762.00;4457352;32;20376;-75
2021/06/29 05:46:06;;;;;;;23.20;12.52;;;;;;;26.55;41.29;100766.63;4448567;32;20195;-75
2021/06/29 05:48:33;;;;;;;21.73;11.00;;;;;;;26.71;41.21;100764.81;4449818;32;20085;-76
2021/06/29 05:51:00;;;;;;;17.80;10.50;;;;;;;26.63;41.18;100769.69;4450320;32;20071;-75
2021/06/29 05:53:28;;;;;;;21.37;12.60;;;;;;;26.86;40.46;100782.41;4450605;32;20123;-76
2021/06/29 05:55:54;;;;;;;23.45;12.68;;;;;;;26.88;40.33;100773.97;4448939;32;20099;-76
2021/06/29 05:58:19;;;;;;;20.27;11.45;;;;;;;26.95;40.24;100779.87;4451810;32;20088;-75
2021/06/29 06:00:45;;;;;;;18.98;11.73;;;;;;;26.90;40.20;100777.84;4448814;32;20464;-76
2021/06/29 06:03:11;;;;;;;18.77;11.15;;;;;;;26.84;40.42;100782.16;4449832;32;20377;-76
2021/06/29 06:05:37;;;;;;;20.73;12.57;;;;;;;26.90;39.88;100791.50;4450529;32;20401;-77
2021/06/29 06:08:03;;;;;;;17.62;11.88;;;;;;;26.82;40.33;100782.72;4449129;32;20038;-76
2021/06/29 06:10:29;;;;;;;18.42;11.07;;;;;;;26.66;40.58;100785.91;4450162;32;20163;-77
2021/06/29 06:12:54;;;;;;;18.75;11.00;;;;;;;26.61;40.56;100792.50;4453899;32;20800;-76
2021/06/29 06:15:22;;;;;;;16.12;11.20;;;;;;;26.60;40.62;100794.59;4451044;32;20195;-76
2021/06/29 06:17:48;;;;;;;27.67;11.68;;;;;;;26.64;40.44;100798.00;4449941;32;20033;-76
2021/06/29 06:20:15;;;;;;;21.65;11.20;;;;;;;26.69;40.44;100794.22;4438725;32;20509;-77
2021/06/29 06:22:41;;;;;;;19.08;10.93;;;;;;;27.03;40.18;100806.78;4449751;32;20074;-76
2021/06/29 06:25:07;;;;;;;19.87;11.18;;;;;;;26.93;40.08;100805.63;4447709;32;20455;-76
2021/06/29 06:27:33;;;;;;;20.05;12.15;;;;;;;27.11;39.87;100809.78;4447988;32;20037;-75
2021/06/29 06:29:59;;;;;;;23.00;11.93;;;;;;;27.13;39.75;100813.69;4446714;32;20069;-76
2021/06/29 06:32:25;;;;;;;20.37;11.52;;;;;;;27.14;39.74;100808.69;4445194;32;20428;-76
2021/06/29 06:34:50;;;;;;;19.70;11.38;;;;;;;27.10;39.85;100802.47;4451804;32;20440;-77
2021/06/29 06:37:16;;;;;;;17.35;10.98;;;;;;;27.17;39.68;100807.56;4446838;32;20045;-75
2021/06/29 06:39:42;;;;;;;22.98;11.75;;;;;;;27.12;39.44;100806.34;4446673;32;20128;-76
2021/06/29 06:42:08;;;;;;;21.52;12.10;;;;;;;27.07;39.66;100804.34;4443770;32;20043;-76
2021/06/29 06:44:34;;;;;;;24.02;12.23;;;;;;;27.14;39.52;100806.59;4438989;32;20148;-77
2021/06/29 06:46:59;;;;;;;19.33;11.25;;;;;;;26.99;39.96;100809.22;4422354;32;20081;-77
2021/06/29 06:49:26;;;;;;;23.58;12.07;;;;;;;27.21;39.33;100819.59;4441058;32;20049;-77
2021/06/29 06:51:53;;;;;;;22.33;11.38;;;;;;;27.27;38.97;100816.63;4444838;32;20052;-77
2021/06/29 06:54:19;;;;;;;24.70;10.63;;;;;;;27.45;38.42;100810.00;4438635;32;20033;-77
2021/06/29 06:56:44;;;;;;;23.02;11.48;;;;;;;27.33;38.61;100820.97;4446653;32;20162;-77
2021/06/29 06:59:10;;;;;;;17.23;10.43;;;;;;;27.31;38.37;100812.09;4438487;32;20416;-77
2021/06/29 07:01:38;;;;;;;22.40;10.02;;;;;;;27.45;38.27;100821.56;4438955;32;20101;-76
2021/06/29 07:04:05;;;;;;;16.92;9.70;;;;;;;27.05;38.92;100824.34;4437978;32;20108;-77
2021/06/29 07:06:31;;;;;;;20.42;10.73;;;;;;;27.51;38.49;100836.66;4436843;32;20756;-77
2021/06/29 07:08:57;;;;;;;16.42;8.88;;;;;;;27.50;38.55;100827.22;4435088;32;20228;-77
2021/06/29 07:11:23;;;;;;;16.85;10.23;;;;;;;27.44;38.25;100831.53;4445110;32;20537;-77
2021/06/29 07:13:49;;;;;;;17.92;9.45;;;;;;;27.41;38.53;100830.56;4426878;32;20085;-77
2021/06/29 07:16:19;;;;;;;15.05;9.00;;;;;;;27.60;38.31;100827.56;4439167;32;20049;-78
2021/06/29 07:18:46;;;;;;;15.27;8.88;;;;;;;27.62;37.87;100828.56;4437056;32;20115;-77
2021/06/29 07:21:12;;;;;;;16.23;9.02;;;;;;;27.91;37.62;100827.47;4434530;32;20072;-78
2021/06/29 07:23:38;;;;;;;15.85;9.48;;;;;;;27.94;37.76;100822.69;4436962;32;20085;-78
2021/06/29 07:26:04;;;;;;;20.65;9.68;;;;;;;28.05;36.88;100823.25;4431069;32;20106;-77
2021/06/29 07:28:30;;;;;;;13.68;8.93;;;;;;;28.49;36.67;100821.47;4437053;32;20086;-76
2021/06/29 07:30:56;;;;;;;15.73;9.27;;;;;;;28.45;36.41;100827.63;4432934;32;20121;-78
2021/06/29 07:33:22;;;;;;;18.35;9.95;;;;;;;28.53;36.33;100819.78;4436229;32;20467;-79
2021/06/29 07:35:49;;;;;;;16.65;9.98;;;;;;;28.57;35.84;100831.03;4434518;32;20086;-80
2021/06/29 07:38:14;;;;;;;19.23;10.73;;;;;;;28.05;37.01;100823.25;4436017;32;20416;-78
2021/06/29 07:40:41;;;;;;;16.55;10.05;;;;;;;28.24;36.83;100825.97;4433800;32;20118;-78
2021/06/29 07:43:07;;;;;;;16.85;10.27;;;;;;;27.90;36.92;100828.81;4432514;32;20596;-81
2021/06/29 07:45:33;;;;;;;16.25;10.23;;;;;;;28.23;36.39;100819.44;4437018;32;20192;-79
2021/06/29 07:48:01;;;;;;;19.00;10.52;;;;;;;28.21;36.52;100821.31;4437317;32;20044;-79
2021/06/29 07:50:29;;;;;;;16.55;10.80;;;;;;;28.07;36.70;100823.44;4434143;32;20040;-75
2021/06/29 07:52:56;;;;;;;24.98;12.45;;;;;;;28.39;36.66;100815.38;4436186;32;20068;-76
2021/06/29 07:55:25;;;;;;;21.40;12.15;;;;;;;28.40;36.97;100821.91;4438166;32;20460;-75
2021/06/29 07:57:52;;;;;;;19.45;11.82;;;;;;;28.47;36.07;100819.13;4437897;32;20108;-75
2021/06/29 08:00:20;;;;;;;19.17;11.50;;;;;;;28.18;36.84;100828.22;4435312;32;20081;-76
2021/06/29 08:02:45;;;;;;;19.00;12.25;;;;;;;28.50;36.07;100815.12;4437989;32;20089;-75
2021/06/29 08:05:11;;;;;;;19.20;11.85;;;;;;;28.34;36.32;100832.84;4436534;32;20081;-75
2021/06/29 08:07:37;;;;;;;18.77;11.05;;;;;;;28.78;35.78;100841.28;4438444;32;20036;-75
2021/06/29 08:10:06;;;;;;;20.35;11.57;;;;;;;28.51;36.06;100834.06;4433889;32;20049;-75
2021/06/29 08:12:32;;;;;;;15.90;10.25;;;;;;;28.27;36.29;100834.31;4437327;32;20073;-74
2021/06/29 08:14:58;;;;;;;18.40;11.32;;;;;;;28.58;35.99;100835.47;4436077;32;20077;-74
2021/06/29 08:17:24;;;;;;;18.10;11.12;;;;;;;28.29;35.86;100837.41;4435478;32;20797;-75
2021/06/29 08:19:51;;;;;;;19.80;11.38;;;;;;;28.55;35.75;100834.50;4437803;32;20532;-75
2021/06/29 08:22:17;;;;;;;18.85;11.30;;;;;;;28.61;35.65;100838.03;4436785;32;20085;-75
2021/06/29 08:24:45;;;;;;;21.05;12.07;;;;;;;28.80;35.60;100837.84;4435899;32;20472;-75
2021/06/29 08:27:14;;;;;;;15.82;10.57;;;;;;;28.89;35.43;100849.72;4442212;32;20091;-76
2021/06/29 08:29:42;;;;;;;18.15;11.60;;;;;;;29.43;34.19;100848.91;4438408;32;20114;-78
2021/06/29 08:32:09;;;;;;;18.50;11.00;;;;;;;29.42;34.17;100855.25;4437098;32;20045;-77
2021/06/29 08:34:35;;;;;;;17.37;10.73;;;;;;;28.85;34.75;100849.31;4439358;32;20162;-76
2021/06/29 08:37:01;;;;;;;19.40;11.00;;;;;;;28.75;34.62;100856.91;4432603;32;20285;-75
2021/06/29 08:39:26;;;;;;;21.00;11.43;;;;;;;28.72;34.50;100848.59;4437379;32;20614;-74
2021/06/29 08:41:53;;;;;;;20.37;12.60;;;;;;;28.97;34.48;100849.81;4424564;32;20489;-74
2021/06/29 08:44:19;;;;;;;21.10;12.13;;;;;;;28.95;34.87;100847.47;4437301;32;20122;-74
2021/06/29 08:46:45;;;;;;;16.85;10.57;;;;;;;29.15;34.39;100853.87;4438100;32;20100;-74
2021/06/29 08:49:12;;;;;;;16.52;10.02;;;;;;;29.01;34.08;100848.13;4433024;32;20068;-74
2021/06/29 08:51:39;;;;;;;14.10;9.75;;;;;;;28.94;34.43;100854.63;4434883;32;20127;-74
2021/06/29 08:54:05;;;;;;;18.10;10.57;;;;;;;29.63;33.60;100851.00;4436284;32;20372;-75
2021/06/29 08:56:32;;;;;;;16.20;7.47;;;;;;;29.26;33.75;100850.69;4433615;32;20143;-74
2021/06/29 08:58:59;;;;;;;12.77;8.02;;;;;;;29.70;33.25;100855.31;4434438;32;20114;-75
2021/06/29 09:01:27;;;;;;;14.65;7.82;;;;;;;29.66;32.69;100855.66;4425818;32;20123;-75
2021/06/29 09:03:53;;;;;;;13.85;7.95;;;;;;;30.39;31.73;100864.63;4439278;32;20423;-75
2021/06/29 09:06:37;;;;;;;12.70;8.07;;;;;;;30.42;31.77;100871.41;4437002;32;20433;-75
2021/06/29 09:11:58;;;;;;;12.77;7.22;;;;;;;30.73;31.30;100873.88;3976085;32;15022836;-73
2021/06/29 09:14:31;;;;;;;14.25;8.68;;;;;;;30.73;31.30;100873.88;4430953;32;20055;-73
2021/06/29 09:17:19;;;;;;;13.95;7.30;;;;;;;30.62;31.38;100876.34;4425266;32;20069;-72
2021/06/29 09:19:45;;;;;;;11.55;6.10;;;;;;;30.62;31.35;100868.38;4428731;32;20136;-73
2021/06/29 09:22:32;;;;;;;13.73;6.97;;;;;;;30.19;31.95;100867.63;4428403;32;20234;-74
2021/06/29 09:25:00;;;;;;;11.93;7.15;;;;;;;30.36;31.16;100862.88;4427529;32;20490;-73
2021/06/29 09:27:47;;;;;;;12.23;7.20;;;;;;;29.92;32.46;100857.59;4429871;32;20165;-73
2021/06/29 09:30:34;;;;;;;9.55;5.68;;;;;;;29.71;32.24;100857.66;4425072;32;20097;-74
2021/06/29 09:35:38;;;;;;;10.60;7.68;;;;;;;30.86;31.57;100870.03;3948384;32;15724516;-74
2021/06/29 09:38:06;;;;;;;13.10;7.90;;;;;;;30.86;31.57;100870.03;4425433;32;21204;-74
2021/06/29 09:40:34;;;;;;;18.02;7.72;;;;;;;29.58;33.14;100868.53;4412113;32;20120;-74
2021/06/29 09:43:17;;;;;;;13.80;7.57;;;;;;;30.13;32.45;100867.00;4424142;32;20111;-73
2021/06/29 09:45:46;;;;;;;14.25;7.18;;;;;;;30.44;31.70;100874.53;4426338;32;20100;-73
2021/06/29 09:48:14;;;;;;;9.95;6.37;;;;;;;30.53;31.98;100871.84;4423258;32;20571;-73
2021/06/29 09:55:56;;;;;;;15.45;6.62;;;;;;;30.95;31.22;100880.34;3976833;32;15024975;-74
2021/06/29 09:58:24;;;;;;;11.23;5.72;;;;;;;30.95;31.22;100880.34;4424798;32;20497;-75
2021/06/29 10:00:55;;;;;;;8.13;5.55;;;;;;;30.44;31.19;100868.72;4425255;32;20134;-74
2021/06/29 10:06:01;;;;;;;8.48;4.93;;;;;;;31.22;29.75;100873.56;3980300;32;15024954;-77
2021/06/29 10:08:31;;;;;;;8.20;5.18;;;;;;;31.22;29.75;100873.56;4430555;32;20094;-78
2021/06/29 10:11:19;;;;;;;11.80;5.45;;;;;;;31.10;30.19;100877.47;4430563;32;20516;-76
2021/06/29 10:16:28;;;;;;;8.73;4.82;;;;;;;31.93;28.98;100870.28;3968047;32;15024636;-77
2021/06/29 10:21:33;;;;;;;10.60;5.35;;;;;;;34.25;26.37;100867.22;3971202;32;15026736;-76
2021/06/29 10:24:02;;;;;;;10.32;5.45;;;;;;;34.25;26.37;100867.22;4425481;32;20123;-76
2021/06/29 10:26:30;;;;;;;11.55;5.07;;;;;;;34.36;25.85;100860.84;4428511;32;20435;-75
2021/06/29 10:28:57;;;;;;;7.10;5.25;;;;;;;35.32;24.97;100870.22;4431429;32;20068;-76
2021/06/29 10:31:28;;;;;;;8.10;4.82;;;;;;;35.76;24.78;100870.84;4432812;32;20102;-75
2021/06/29 10:33:58;;;;;;;9.32;3.90;;;;;;;36.33;23.70;100861.38;4430590;32;20192;-76
2021/06/29 10:36:26;;;;;;;8.73;4.75;;;;;;;36.28;23.64;100859.56;4433156;32;20133;-77
2021/06/29 10:38:53;;;;;;;9.75;3.72;;;;;;;36.65;23.27;100863.84;4433003;32;20089;-75
2021/06/29 10:41:23;;;;;;;7.60;3.78;;;;;;;36.63;23.47;100863.69;4433580;32;20659;-75
2021/06/29 10:43:51;;;;;;;5.95;3.50;;;;;;;36.42;23.11;100864.31;4433719;32;20169;-75
2021/06/29 10:57:24;;;;;;;8.50;4.00;;;;;;;35.83;23.71;100872.91;3992874;31;15019638;-75
2021/06/29 10:59:55;;;;;;;6.03;3.53;;;;;;;35.83;23.71;100872.91;4441414;32;20543;-75
2021/06/29 11:02:31;;;;;;;8.80;3.53;;;;;;;35.22;24.31;100866.50;4428596;32;20148;-77
2021/06/29 11:10:15;;;;;;;7.70;3.95;;;;;;;34.40;25.51;100875.03;3966798;32;15021953;-76
2021/06/29 11:12:52;;;;;;;6.30;3.47;;;;;;;34.40;25.51;100875.03;4415187;32;20494;-74
2021/06/29 11:15:19;;;;;;;4.15;3.47;;;;;;;33.49;26.26;100862.72;4415488;32;20117;-75
2021/06/29 11:20:27;;;;;;;6.03;3.12;;;;;;;33.09;26.72;100855.91;3980208;32;15023495;-76
2021/06/29 11:36:04;;;;;;;5.43;2.70;;;;;;;36.37;22.03;100868.34;3979743;32;15023278;-76
2021/06/29 11:41:31;;;;;;;6.10;2.05;;;;;;;36.60;21.73;100862.00;3977810;32;15026193;-75
2021/06/29 11:54:54;;;;;;;4.28;2.33;;;;;;;38.78;19.37;100865.13;3963183;32;15028203;-75
2021/06/29 12:00:23;;;;;;;8.43;3.03;;;;;;;39.82;18.64;100871.09;3961652;32;15026672;-76
2021/06/29 12:02:52;;;;;;;7.90;3.62;;;;;;;39.82;18.64;100871.09;4399608;32;20156;-77
2021/06/29 12:05:20;;;;;;;4.93;2.00;;;;;;;40.34;17.89;100866.25;4400495;32;20530;-78
2021/06/29 12:07:49;;;;;;;5.53;2.53;;;;;;;40.38;17.74;100866.50;4402876;32;20130;-78
2021/06/29 12:13:00;;;;;;;5.40;4.60;;;;;;;40.78;17.57;100882.88;3966814;32;15156898;-76
2021/06/29 12:18:05;;;;;;;3.85;2.28;;;;;;;39.78;18.40;100856.88;3947886;32;15722566;-76
2021/06/29 12:20:34;;;;;;;4.15;2.03;;;;;;;39.78;18.40;100856.88;4409088;32;20048;-80
2021/06/29 12:23:02;;;;;;;5.82;2.40;;;;;;;39.11;18.55;100857.78;4426240;32;20503;-82
2021/06/29 12:25:36;;;;;;;4.65;2.53;;;;;;;38.96;18.75;100855.31;4426818;32;20153;-81
2021/06/29 12:28:08;;;;;;;6.55;2.80;;;;;;;38.83;18.69;100855.91;4426133;32;20429;-84
2021/06/29 12:33:17;;;;;;;6.80;2.75;;;;;;;40.08;18.11;100843.25;3975324;32;15021235;-77